Time;durP1;ratioP1;P1;durP2;ratioP2;P2;SDS_P1;SDS_P2;PMS_P1;PMS_P2;Temp;Humidity;BMP_temperature;BMP_pressure;BME280_temperature;BME280_humidity;BME280_pressure;Samples;Min_cycle;Max_cycle;Signal;HPM_P1;HPM_P2
2021/06/08 00:01:14;;;;;;;12.68;8.90;;;17.30;74.60;;;;;;4942232;29;20385;-66
2021/06/08 00:03:40;;;;;;;11.13;9.07;;;17.40;74.30;;;;;;4941953;28;20043;-65
2021/06/08 00:06:06;;;;;;;12.23;8.82;;;17.50;73.50;;;;;;4941468;29;20039;-66
2021/06/08 00:08:32;;;;;;;9.27;7.93;;;17.40;73.90;;;;;;4923487;29;20066;-63
2021/06/08 00:10:58;;;;;;;9.60;7.97;;;17.40;74.10;;;;;;4940542;29;20074;-65
2021/06/08 00:13:24;;;;;;;9.55;8.45;;;17.40;73.60;;;;;;4942479;29;20575;-64
2021/06/08 00:15:49;;;;;;;8.35;7.40;;;17.40;73.30;;;;;;4942694;29;20067;-63
2021/06/08 00:18:15;;;;;;;9.60;7.85;;;17.40;72.60;;;;;;4941849;29;20047;-65
2021/06/08 00:20:41;;;;;;;10.77;8.40;;;17.40;73.10;;;;;;4940213;29;20047;-66
2021/06/08 00:23:07;;;;;;;11.27;9.73;;;17.40;73.00;;;;;;4943504;29;20094;-65
2021/06/08 00:25:33;;;;;;;11.13;8.85;;;17.30;72.40;;;;;;4942688;29;20188;-64
2021/06/08 00:28:01;;;;;;;11.20;8.65;;;17.10;72.80;;;;;;4940044;29;20043;-65
2021/06/08 00:30:27;;;;;;;13.77;9.35;;;17.00;74.20;;;;;;4942021;29;20122;-64
2021/06/08 00:32:53;;;;;;;11.10;8.45;;;17.10;74.50;;;;;;4941583;29;20968;-65
2021/06/08 00:35:19;;;;;;;14.63;10.13;;;17.20;74.50;;;;;;4940320;29;20051;-64
2021/06/08 00:37:46;;;;;;;13.43;9.75;;;17.40;74.40;;;;;;4941553;29;20046;-66
2021/06/08 00:40:13;;;;;;;11.35;9.35;;;17.60;73.80;;;;;;4942208;29;20476;-65
2021/06/08 00:42:39;;;;;;;12.25;9.40;;;17.60;72.90;;;;;;4941073;29;20584;-66
2021/06/08 00:45:07;;;;;;;13.63;9.73;;;17.60;73.20;;;;;;4942598;29;20057;-65
2021/06/08 00:47:35;;;;;;;12.82;8.20;;;17.70;73.20;;;;;;4943074;28;20381;-66
2021/06/08 00:50:20;;;;;;;11.70;9.07;;;17.70;73.10;;;;;;4913211;29;20455;-66
2021/06/08 00:52:51;;;;;;;12.18;8.85;;;17.80;72.70;;;;;;4938622;29;20043;-64
2021/06/08 00:55:18;;;;;;;12.35;8.75;;;17.90;72.40;;;;;;4940224;29;20039;-66
2021/06/08 00:57:44;;;;;;;12.73;8.63;;;18.00;72.40;;;;;;4941668;29;20065;-65
2021/06/08 01:00:11;;;;;;;12.20;8.80;;;18.10;71.90;;;;;;4940590;29;20035;-65
2021/06/08 01:02:37;;;;;;;12.82;9.75;;;18.20;72.00;;;;;;4941984;29;20053;-65
2021/06/08 01:05:05;;;;;;;11.05;8.45;;;18.30;71.70;;;;;;4940150;29;20051;-65
2021/06/08 01:07:34;;;;;;;11.27;9.02;;;18.30;71.40;;;;;;4942534;29;20126;-65
2021/06/08 01:10:03;;;;;;;12.38;9.60;;;18.40;71.10;;;;;;4940715;28;20047;-67
2021/06/08 01:12:29;;;;;;;10.75;9.63;;;18.40;70.80;;;;;;4940697;29;20039;-65
2021/06/08 01:14:55;;;;;;;11.50;8.68;;;18.40;70.20;;;;;;4941153;29;20040;-65
2021/06/08 01:17:21;;;;;;;11.90;9.40;;;18.30;70.60;;;;;;4941613;29;20114;-66
2021/06/08 01:19:48;;;;;;;10.07;7.90;;;18.30;70.80;;;;;;4939671;29;20059;-65
2021/06/08 01:22:15;;;;;;;13.35;10.60;;;18.30;70.80;;;;;;4923820;29;20047;-66
2021/06/08 01:24:43;;;;;;;10.57;8.45;;;18.40;69.40;;;;;;4924438;29;20182;-65
2021/06/08 01:27:09;;;;;;;9.77;8.05;;;18.10;70.60;;;;;;4939910;29;20086;-65
2021/06/08 01:29:37;;;;;;;11.73;9.40;;;18.10;71.30;;;;;;4922157;29;20047;-66
2021/06/08 01:32:05;;;;;;;10.45;7.90;;;18.20;70.30;;;;;;4941440;29;20047;-66
2021/06/08 01:34:34;;;;;;;11.20;8.35;;;18.20;70.70;;;;;;4941713;29;20046;-65
2021/06/08 01:37:01;;;;;;;11.25;8.57;;;18.20;70.90;;;;;;4938744;29;20043;-65
2021/06/08 01:39:28;;;;;;;10.57;7.90;;;18.20;71.10;;;;;;4922493;29;20069;-65
2021/06/08 01:41:54;;;;;;;10.98;8.38;;;18.30;70.80;;;;;;4941152;29;20170;-65
2021/06/08 01:44:20;;;;;;;10.77;7.43;;;18.40;70.60;;;;;;4940783;29;20558;-66
2021/06/08 01:46:46;;;;;;;9.73;7.68;;;18.40;70.90;;;;;;4941236;29;20079;-66
2021/06/08 01:49:12;;;;;;;9.88;7.82;;;18.40;70.20;;;;;;4939871;29;21306;-66
2021/06/08 01:51:44;;;;;;;9.90;7.57;;;18.50;69.80;;;;;;4940066;29;20043;-66
2021/06/08 01:54:22;;;;;;;8.85;7.10;;;18.60;69.70;;;;;;4940131;29;20131;-66
2021/06/08 01:56:58;;;;;;;9.68;7.38;;;18.60;69.20;;;;;;4938528;29;20091;-65
2021/06/08 01:59:43;;;;;;;7.47;6.30;;;18.70;69.40;;;;;;4940260;29;20035;-65
2021/06/08 02:02:25;;;;;;;10.52;7.82;;;18.50;69.00;;;;;;4941084;29;20440;-65
2021/06/08 02:05:17;;;;;;;9.38;6.93;;;18.40;69.40;;;;;;4939817;29;20035;-65
2021/06/08 02:08:05;;;;;;;11.23;7.68;;;18.40;69.50;;;;;;4920297;29;20066;-65
2021/06/08 02:10:52;;;;;;;9.02;7.00;;;18.40;69.80;;;;;;4940537;29;20130;-66
2021/06/08 02:13:36;;;;;;;9.40;7.45;;;18.40;69.10;;;;;;4938490;29;20078;-66
2021/06/08 02:16:45;;;;;;;8.57;6.45;;;18.40;69.50;;;;;;4941445;29;20463;-66
2021/06/08 02:19:13;;;;;;;9.88;6.97;;;18.40;69.50;;;;;;4934420;29;20055;-66
2021/06/08 02:21:55;;;;;;;10.00;7.13;;;18.40;69.10;;;;;;4937980;29;20042;-66
2021/06/08 02:24:25;;;;;;;8.80;6.53;;;18.40;69.10;;;;;;4939390;29;20039;-66
2021/06/08 02:26:57;;;;;;;9.15;7.88;;;18.40;69.20;;;;;;4940970;29;20089;-66
2021/06/08 02:29:26;;;;;;;11.65;8.70;;;18.50;67.90;;;;;;4939306;29;20039;-65
2021/06/08 02:31:55;;;;;;;8.77;6.90;;;18.40;67.20;;;;;;4939181;29;20047;-65
2021/06/08 02:34:23;;;;;;;9.55;7.15;;;18.10;69.00;;;;;;4939730;29;20106;-65
2021/06/08 02:37:12;;;;;;;8.65;6.45;;;18.10;70.10;;;;;;4914390;29;20058;-66
2021/06/08 02:39:40;;;;;;;8.70;6.57;;;18.20;70.10;;;;;;4939219;29;20043;-67
2021/06/08 02:42:09;;;;;;;9.90;7.38;;;18.30;69.80;;;;;;4939855;29;20121;-66
2021/06/08 02:44:41;;;;;;;9.32;6.82;;;18.40;69.50;;;;;;4921823;29;20102;-66
2021/06/08 02:47:16;;;;;;;7.55;6.53;;;18.50;69.80;;;;;;4939093;29;20118;-66
2021/06/08 02:49:42;;;;;;;9.10;7.15;;;18.50;69.00;;;;;;4939092;29;20520;-65
2021/06/08 02:52:10;;;;;;;7.88;6.15;;;18.50;69.00;;;;;;4938281;29;20075;-65
2021/06/08 02:54:37;;;;;;;7.38;6.20;;;18.50;69.50;;;;;;4938640;29;20050;-65
2021/06/08 02:57:03;;;;;;;7.85;6.25;;;18.60;68.80;;;;;;4938594;29;20403;-66
2021/06/08 02:59:33;;;;;;;8.25;6.50;;;18.60;68.70;;;;;;4923118;29;20039;-66
2021/06/08 03:02:00;;;;;;;8.43;6.80;;;18.60;68.60;;;;;;4939818;29;20043;-66
2021/06/08 03:04:45;;;;;;;7.50;5.53;;;18.50;68.60;;;;;;4938610;29;20047;-66
2021/06/08 03:07:12;;;;;;;8.63;7.28;;;18.50;69.10;;;;;;4937460;29;20059;-66
2021/06/08 03:09:47;;;;;;;7.30;5.40;;;18.40;68.90;;;;;;4921340;29;20047;-66
2021/06/08 03:12:16;;;;;;;8.07;6.35;;;18.30;69.30;;;;;;4939173;29;20063;-66
2021/06/08 03:14:46;;;;;;;9.50;6.30;;;18.30;69.40;;;;;;4940563;29;20488;-65
2021/06/08 03:17:14;;;;;;;7.28;5.53;;;18.30;69.30;;;;;;4939425;29;20122;-66
2021/06/08 03:19:47;;;;;;;7.97;6.20;;;18.20;69.50;;;;;;4939362;29;20040;-66
2021/06/08 03:22:17;;;;;;;9.07;6.03;;;18.20;69.40;;;;;;4937831;29;20118;-66
2021/06/08 03:24:47;;;;;;;6.35;5.22;;;18.30;69.50;;;;;;4939013;29;20468;-65
2021/06/08 03:27:14;;;;;;;7.50;5.50;;;18.30;69.40;;;;;;4939198;29;20039;-66
2021/06/08 03:29:41;;;;;;;6.30;5.07;;;18.40;69.20;;;;;;4939287;29;20392;-64
2021/06/08 03:32:11;;;;;;;7.28;5.28;;;18.50;69.20;;;;;;4923674;29;20050;-66
2021/06/08 03:34:39;;;;;;;6.47;5.22;;;18.60;69.60;;;;;;4941709;29;20175;-66
2021/06/08 03:37:07;;;;;;;6.82;5.25;;;18.60;68.80;;;;;;4943527;29;20043;-67
2021/06/08 03:39:34;;;;;;;6.18;5.18;;;18.50;68.80;;;;;;4942106;29;20043;-66
2021/06/08 03:42:01;;;;;;;5.88;5.05;;;18.40;69.00;;;;;;4923813;29;20412;-66
2021/06/08 03:44:27;;;;;;;7.05;5.18;;;18.30;69.10;;;;;;4942117;29;20047;-66
2021/06/08 03:46:54;;;;;;;5.75;4.75;;;18.40;69.30;;;;;;4941278;29;20114;-66
2021/06/08 03:49:22;;;;;;;6.07;5.30;;;18.50;69.20;;;;;;4942735;29;20044;-66
2021/06/08 03:51:51;;;;;;;6.30;4.80;;;18.60;69.00;;;;;;4942681;29;20060;-66
2021/06/08 03:54:17;;;;;;;5.78;4.75;;;18.50;69.00;;;;;;4942093;29;20110;-66
2021/06/08 03:56:47;;;;;;;6.13;4.65;;;18.40;69.10;;;;;;4941489;29;22151;-66
2021/06/08 03:59:14;;;;;;;5.90;4.65;;;18.40;69.10;;;;;;4941386;29;20040;-66
2021/06/08 04:01:42;;;;;;;5.93;4.75;;;18.50;68.90;;;;;;4942720;29;20106;-65
2021/06/08 04:04:08;;;;;;;5.40;4.70;;;18.50;69.00;;;;;;4942765;29;21200;-66
2021/06/08 04:06:34;;;;;;;5.15;4.30;;;18.50;69.00;;;;;;4941517;29;20130;-66
2021/06/08 04:09:09;;;;;;;7.35;4.40;;;18.40;68.80;;;;;;4942482;29;20058;-66
2021/06/08 04:11:41;;;;;;;6.28;4.75;;;18.40;69.20;;;;;;4941163;29;20047;-66
2021/06/08 04:14:09;;;;;;;5.00;4.18;;;18.40;68.80;;;;;;4908716;29;20039;-66
2021/06/08 04:16:36;;;;;;;5.40;4.50;;;18.10;69.10;;;;;;4940784;29;20127;-65
2021/06/08 04:19:07;;;;;;;5.72;4.47;;;18.00;69.70;;;;;;4942759;29;20043;-65
2021/06/08 04:21:33;;;;;;;5.10;3.75;;;18.00;70.00;;;;;;4908624;29;20070;-66
2021/06/08 04:24:01;;;;;;;4.25;3.75;;;18.00;70.10;;;;;;4925191;29;20428;-65
2021/06/08 04:26:28;;;;;;;4.80;3.80;;;18.10;69.80;;;;;;4942397;29;20043;-65
2021/06/08 04:28:54;;;;;;;5.07;3.88;;;18.30;69.60;;;;;;4940743;29;20043;-65
2021/06/08 04:31:40;;;;;;;4.57;4.05;;;18.30;69.30;;;;;;4927300;29;20665;-65
2021/06/08 04:34:07;;;;;;;4.38;3.45;;;18.30;68.60;;;;;;4923734;29;20080;-65
2021/06/08 04:36:33;;;;;;;5.35;3.80;;;18.30;69.30;;;;;;4942533;29;20052;-65
2021/06/08 04:38:59;;;;;;;7.22;3.95;;;18.30;69.50;;;;;;4940329;29;20050;-65
2021/06/08 04:41:26;;;;;;;5.30;4.10;;;18.30;69.50;;;;;;4941135;29;20042;-66
2021/06/08 04:43:52;;;;;;;5.03;4.25;;;18.40;69.60;;;;;;4941955;28;20039;-65
2021/06/08 04:46:25;;;;;;;4.45;3.90;;;18.50;69.00;;;;;;4940541;29;20392;-65
2021/06/08 04:49:00;;;;;;;10.52;3.50;;;18.50;69.00;;;;;;4941552;29;20059;-66
2021/06/08 04:51:32;;;;;;;5.07;4.40;;;18.50;69.00;;;;;;4939599;29;20054;-65
2021/06/08 04:54:09;;;;;;;5.55;4.28;;;18.60;68.80;;;;;;4939940;29;20118;-66
2021/06/08 04:56:38;;;;;;;4.93;4.15;;;18.70;68.60;;;;;;4939676;29;20051;-65
2021/06/08 04:59:04;;;;;;;6.50;4.30;;;18.60;68.40;;;;;;4940864;29;20074;-65
2021/06/08 05:01:39;;;;;;;5.57;4.05;;;18.70;68.60;;;;;;4923168;29;20039;-65
2021/06/08 05:04:11;;;;;;;6.25;3.92;;;18.70;68.60;;;;;;4941126;28;20411;-65
2021/06/08 05:06:43;;;;;;;5.72;3.95;;;18.70;68.70;;;;;;4940777;29;20036;-65
2021/06/08 05:09:18;;;;;;;7.90;3.60;;;18.80;68.40;;;;;;4940951;29;20055;-65
2021/06/08 05:11:52;;;;;;;6.22;4.72;;;18.80;68.60;;;;;;4940859;29;20039;-65
2021/06/08 05:14:19;;;;;;;7.10;4.22;;;18.90;68.40;;;;;;4921951;29;20051;-65
2021/06/08 05:16:49;;;;;;;7.57;5.43;;;18.90;68.60;;;;;;4942274;29;20039;-66
2021/06/08 05:19:17;;;;;;;8.65;4.43;;;18.90;68.30;;;;;;4940379;29;20047;-66
2021/06/08 05:21:55;;;;;;;6.50;4.53;;;18.90;68.30;;;;;;4940467;29;20043;-65
2021/06/08 05:24:23;;;;;;;7.03;4.50;;;18.90;68.10;;;;;;4940331;29;20049;-65
2021/06/08 05:26:52;;;;;;;5.38;4.32;;;18.90;68.30;;;;;;4940700;29;20063;-67
2021/06/08 05:29:23;;;;;;;6.10;4.20;;;18.90;68.40;;;;;;4941114;29;20517;-68
2021/06/08 05:31:50;;;;;;;7.22;4.55;;;18.90;69.00;;;;;;4941107;29;20681;-66
2021/06/08 05:34:19;;;;;;;5.88;3.80;;;18.90;69.00;;;;;;4939607;29;20054;-66
2021/06/08 05:36:45;;;;;;;5.55;4.47;;;19.00;69.00;;;;;;4940839;29;22301;-65
2021/06/08 05:39:12;;;;;;;4.75;4.10;;;18.90;68.90;;;;;;4940423;29;20063;-66
2021/06/08 05:41:39;;;;;;;6.60;3.63;;;19.00;68.60;;;;;;4940254;29;20162;-65
2021/06/08 05:44:10;;;;;;;8.38;3.45;;;19.00;68.30;;;;;;4939081;29;20044;-66
2021/06/08 05:46:37;;;;;;;7.00;4.18;;;19.10;68.10;;;;;;4941026;29;20035;-66
2021/06/08 05:49:07;;;;;;;6.25;3.55;;;19.10;67.80;;;;;;4940148;29;20403;-65
2021/06/08 05:51:54;;;;;;;8.27;3.90;;;19.10;67.50;;;;;;4939121;29;20780;-64
2021/06/08 05:54:21;;;;;;;5.03;3.40;;;18.90;66.90;;;;;;4939908;29;20047;-65
2021/06/08 05:56:51;;;;;;;11.57;4.65;;;18.70;67.80;;;;;;4939116;29;20511;-66
2021/06/08 05:59:26;;;;;;;11.38;5.05;;;18.80;70.20;;;;;;4940979;29;20054;-66
2021/06/08 06:01:52;;;;;;;7.80;4.35;;;18.90;72.90;;;;;;4941326;29;20039;-66
2021/06/08 06:04:21;;;;;;;6.25;3.58;;;18.80;71.90;;;;;;4939981;29;20043;-65
2021/06/08 06:06:48;;;;;;;8.77;5.30;;;18.80;72.80;;;;;;4939092;29;20471;-66
2021/06/08 06:09:21;;;;;;;5.97;4.03;;;18.70;73.00;;;;;;4940723;29;20055;-65
2021/06/08 06:11:49;;;;;;;10.27;4.93;;;18.70;73.50;;;;;;4938278;29;20070;-65
2021/06/08 06:14:19;;;;;;;6.20;3.63;;;18.80;73.50;;;;;;4939020;29;20913;-66
2021/06/08 06:16:51;;;;;;;6.13;3.88;;;18.80;72.80;;;;;;4940836;29;20144;-66
2021/06/08 06:19:18;;;;;;;5.57;4.22;;;18.80;72.50;;;;;;4938324;29;20125;-67
2021/06/08 06:22:02;;;;;;;6.38;4.05;;;18.70;71.50;;;;;;4925641;29;20061;-65
2021/06/08 06:24:31;;;;;;;9.98;4.57;;;18.60;72.20;;;;;;4939318;29;20043;-65
2021/06/08 06:26:59;;;;;;;7.03;4.60;;;18.60;72.40;;;;;;4937746;29;20043;-60
2021/06/08 06:29:30;;;;;;;6.45;4.40;;;18.60;71.50;;;;;;4940310;29;20051;-60
2021/06/08 06:32:09;;;;;;;7.22;3.70;;;18.60;72.00;;;;;;4941194;29;20055;-64
2021/06/08 06:34:42;;;;;;;7.25;4.18;;;18.60;72.10;;;;;;4923906;29;20043;-64
2021/06/08 06:37:08;;;;;;;9.43;4.20;;;18.70;71.30;;;;;;4939961;29;20458;-66
2021/06/08 06:39:36;;;;;;;5.72;4.55;;;18.70;71.00;;;;;;4939328;29;20039;-65
2021/06/08 06:42:06;;;;;;;9.40;5.20;;;18.70;71.30;;;;;;4940146;29;20485;-63
2021/06/08 06:44:33;;;;;;;7.15;4.60;;;18.60;69.90;;;;;;4940083;29;20460;-62
2021/06/08 06:47:00;;;;;;;8.52;4.82;;;18.50;70.80;;;;;;4939554;29;20058;-62
2021/06/08 06:49:25;;;;;;;10.32;5.00;;;18.50;71.10;;;;;;4921333;29;20109;-62
2021/06/08 06:52:06;;;;;;;11.70;4.80;;;18.50;71.20;;;;;;4939648;29;20063;-62
2021/06/08 06:54:35;;;;;;;6.97;4.47;;;18.50;70.50;;;;;;4938190;29;20047;-62
2021/06/08 06:57:07;;;;;;;8.75;4.95;;;18.60;71.10;;;;;;4937339;29;20070;-62
2021/06/08 06:59:34;;;;;;;8.98;5.00;;;18.60;71.20;;;;;;4938602;29;20040;-62
2021/06/08 07:02:01;;;;;;;8.48;5.22;;;18.70;70.60;;;;;;4923518;29;20050;-62
2021/06/08 07:04:31;;;;;;;6.25;4.68;;;18.80;70.60;;;;;;4939155;29;20134;-63
2021/06/08 07:07:00;;;;;;;14.82;6.72;;;18.80;70.50;;;;;;4939587;28;20067;-63
2021/06/08 07:09:33;;;;;;;;;;;18.90;69.10;;;;;;4943791;29;20051;-62
2021/06/08 07:11:59;;;;;;;10.63;4.50;;;18.80;67.60;;;;;;4941334;29;19922;-62
2021/06/08 07:14:27;;;;;;;8.15;4.20;;;18.60;69.90;;;;;;4943000;29;20039;-62
2021/06/08 07:16:53;;;;;;;9.38;5.15;;;18.60;70.30;;;;;;4941794;29;20044;-61
2021/06/08 07:19:20;;;;;;;13.50;4.47;;;18.60;70.20;;;;;;4923951;29;20479;-62
2021/06/08 07:21:49;;;;;;;10.05;5.00;;;18.60;70.50;;;;;;4941025;29;20039;-62
2021/06/08 07:24:15;;;;;;;8.30;5.43;;;18.70;69.90;;;;;;4942708;29;20117;-62
2021/06/08 07:26:44;;;;;;;6.10;4.45;;;18.80;69.40;;;;;;4942555;29;20128;-63
2021/06/08 07:29:12;;;;;;;5.00;4.30;;;18.80;69.30;;;;;;4942657;29;20044;-62
2021/06/08 07:31:48;;;;;;;19.63;5.45;;;18.80;69.90;;;;;;4943260;29;20076;-63
2021/06/08 07:34:23;;;;;;;7.00;5.35;;;18.90;69.90;;;;;;4941731;29;20097;-63
2021/06/08 07:36:51;;;;;;;5.13;4.63;;;18.90;68.80;;;;;;4941600;29;20047;-62
2021/06/08 07:39:29;;;;;;;5.85;4.40;;;18.70;69.10;;;;;;4925873;29;20154;-63
2021/06/08 07:42:12;;;;;;;4.60;4.03;;;18.70;69.60;;;;;;4942228;29;20122;-63
2021/06/08 07:44:58;;;;;;;5.68;4.35;;;18.90;69.30;;;;;;4942413;29;20052;-63
2021/06/08 07:47:48;;;;;;;6.07;5.25;;;18.90;69.30;;;;;;4914505;29;20051;-63
2021/06/08 07:50:37;;;;;;;5.50;4.60;;;18.90;68.90;;;;;;4927574;29;20411;-62
2021/06/08 07:53:07;;;;;;;6.72;4.15;;;18.90;68.70;;;;;;4942280;29;20360;-63
2021/06/08 07:55:35;;;;;;;7.05;4.30;;;19.00;69.10;;;;;;4941721;29;20603;-63
2021/06/08 07:58:04;;;;;;;5.38;4.70;;;19.20;68.90;;;;;;4941980;29;20571;-63
2021/06/08 08:00:48;;;;;;;5.68;4.80;;;19.30;68.00;;;;;;4942731;29;20127;-63
2021/06/08 08:03:30;;;;;;;6.63;4.22;;;19.40;67.00;;;;;;4940852;29;20044;-62
2021/06/08 08:05:59;;;;;;;5.18;4.35;;;19.30;68.10;;;;;;4925460;29;20593;-63
2021/06/08 08:08:27;;;;;;;5.72;5.10;;;19.40;68.30;;;;;;4938273;28;20117;-63
2021/06/08 08:10:53;;;;;;;5.35;4.38;;;19.50;67.30;;;;;;4935273;29;20133;-63
2021/06/08 08:13:27;;;;;;;5.07;4.57;;;19.60;67.00;;;;;;4921183;29;20063;-62
2021/06/08 08:16:10;;;;;;;9.82;5.10;;;19.60;67.30;;;;;;4933539;29;20078;-59
2021/06/08 08:18:37;;;;;;;7.13;5.18;;;19.40;68.50;;;;;;4933835;28;20047;-61
2021/06/08 08:21:09;;;;;;;11.70;4.50;;;19.40;68.50;;;;;;4931630;29;20047;-60
2021/06/08 08:23:41;;;;;;;12.23;4.40;;;19.60;70.00;;;;;;4932026;28;20050;-61
2021/06/08 08:26:27;;;;;;;6.53;3.95;;;19.90;69.40;;;;;;4924196;29;20051;-60
2021/06/08 08:29:00;;;;;;;9.45;4.45;;;20.30;68.30;;;;;;4930521;29;20035;-61
2021/06/08 08:31:32;;;;;;;8.00;3.97;;;20.60;67.20;;;;;;4918778;29;20039;-61
2021/06/08 08:34:01;;;;;;;5.80;3.88;;;20.90;66.30;;;;;;4933442;29;20098;-62
2021/06/08 08:36:31;;;;;;;6.95;3.35;;;21.30;65.80;;;;;;4920038;29;20043;-61
2021/06/08 08:38:57;;;;;;;7.25;3.97;;;21.60;64.70;;;;;;4935264;29;20078;-61
2021/06/08 08:41:23;;;;;;;8.85;4.03;;;21.90;63.40;;;;;;4920489;29;20043;-62
2021/06/08 08:43:58;;;;;;;4.78;4.15;;;22.10;62.30;;;;;;4930142;29;20173;-62
2021/06/08 08:46:45;;;;;;;13.23;4.90;;;22.20;61.50;;;;;;4913984;29;20051;-61
2021/06/08 08:49:11;;;;;;;12.10;4.95;;;22.30;60.40;;;;;;4923909;29;20071;-62
2021/06/08 08:51:39;;;;;;;9.68;5.57;;;22.10;60.40;;;;;;4922421;29;20054;-62
2021/06/08 08:54:21;;;;;;;8.52;4.93;;;22.00;60.70;;;;;;4933499;29;20055;-61
2021/06/08 08:56:48;;;;;;;5.85;4.10;;;22.10;60.70;;;;;;4933880;29;20534;-61
2021/06/08 08:59:21;;;;;;;7.40;4.50;;;22.20;60.60;;;;;;4937232;29;20130;-61
2021/06/08 09:02:09;;;;;;;17.98;5.85;;;22.40;59.90;;;;;;4910212;28;20134;-61
2021/06/08 09:04:36;;;;;;;7.40;5.63;;;22.70;59.80;;;;;;4932981;29;20076;-59
2021/06/08 09:07:02;;;;;;;15.35;5.53;;;22.70;59.20;;;;;;4933622;29;20039;-59
2021/06/08 09:09:29;;;;;;;9.63;4.65;;;22.80;58.90;;;;;;4932714;29;20090;-59
2021/06/08 09:11:55;;;;;;;7.50;4.88;;;22.90;58.60;;;;;;4922269;29;20043;-60
2021/06/08 09:14:22;;;;;;;6.97;4.25;;;23.10;58.10;;;;;;4922957;29;20039;-61
2021/06/08 09:16:51;;;;;;;7.65;5.10;;;23.20;57.80;;;;;;4920238;29;20086;-61
2021/06/08 09:19:18;;;;;;;5.03;4.53;;;23.40;57.50;;;;;;4920292;29;20400;-61
2021/06/08 09:21:54;;;;;;;8.60;5.47;;;23.40;57.30;;;;;;4920947;29;20591;-62
2021/06/08 09:24:26;;;;;;;6.50;5.15;;;23.50;56.90;;;;;;4919960;29;20909;-61
2021/06/08 09:26:55;;;;;;;6.35;5.40;;;23.60;56.70;;;;;;4921407;29;20396;-61
2021/06/08 09:29:41;;;;;;;5.90;4.80;;;23.70;56.60;;;;;;4920085;29;20092;-61
2021/06/08 09:32:28;;;;;;;10.25;5.45;;;23.70;56.90;;;;;;4921999;29;20066;-61
2021/06/08 09:35:00;;;;;;;9.23;4.85;;;23.70;57.20;;;;;;4921294;29;20047;-58
2021/06/08 09:37:52;;;;;;;14.98;5.93;;;23.70;56.70;;;;;;4920639;29;20058;-60
2021/06/08 09:40:23;;;;;;;5.03;4.00;;;23.80;56.70;;;;;;4901977;29;20044;-58
2021/06/08 09:43:10;;;;;;;7.30;4.50;;;23.70;56.50;;;;;;4917500;29;20388;-58
2021/06/08 09:45:41;;;;;;;5.28;4.45;;;23.80;56.70;;;;;;4920110;29;20396;-61
2021/06/08 09:48:07;;;;;;;9.50;4.75;;;23.90;55.80;;;;;;4934221;29;20059;-61
2021/06/08 09:50:37;;;;;;;6.82;5.53;;;24.10;55.60;;;;;;4919607;29;20335;-59
2021/06/08 09:53:20;;;;;;;5.50;4.97;;;24.20;55.10;;;;;;4919952;29;20043;-61
2021/06/08 09:55:59;;;;;;;6.13;4.60;;;24.30;55.00;;;;;;4920190;29;20123;-61
2021/06/08 09:58:30;;;;;;;5.88;5.13;;;24.40;54.80;;;;;;4920262;29;20044;-59
2021/06/08 10:01:22;;;;;;;8.45;6.15;;;24.50;54.40;;;;;;4911724;29;20873;-61
2021/06/08 10:03:54;;;;;;;4.82;3.95;;;24.60;55.00;;;;;;4921015;29;20044;-62
2021/06/08 10:06:24;;;;;;;9.40;3.90;;;24.50;54.60;;;;;;4919805;29;20035;-62
2021/06/08 10:09:00;;;;;;;11.30;4.72;;;24.60;54.50;;;;;;4921781;29;20040;-61
2021/06/08 10:11:31;;;;;;;12.95;4.68;;;24.70;54.30;;;;;;4937469;29;20731;-61
2021/06/08 10:14:08;;;;;;;7.13;4.38;;;24.80;54.20;;;;;;4939629;29;20415;-61
2021/06/08 10:16:35;;;;;;;9.07;4.65;;;24.90;54.20;;;;;;4939214;29;20047;-61
2021/06/08 10:19:03;;;;;;;7.40;4.47;;;24.90;54.00;;;;;;4939491;29;20071;-62
2021/06/08 10:21:49;;;;;;;22.98;6.45;;;24.90;54.20;;;;;;4939125;29;20039;-62
2021/06/08 10:24:22;;;;;;;6.18;4.28;;;24.90;54.20;;;;;;4936661;29;20665;-62
2021/06/08 10:26:52;;;;;;;10.20;4.60;;;25.00;54.20;;;;;;4922708;29;20039;-62
2021/06/08 10:29:24;;;;;;;9.43;5.15;;;25.00;54.40;;;;;;4938097;29;20045;-62
2021/06/08 10:31:52;;;;;;;7.35;4.75;;;25.10;54.30;;;;;;4940023;29;20039;-62
2021/06/08 10:34:18;;;;;;;9.98;7.13;;;25.10;54.10;;;;;;4939788;29;20050;-62
2021/06/08 10:36:44;;;;;;;7.18;6.47;;;25.10;53.40;;;;;;4939359;29;20043;-62
2021/06/08 10:39:13;;;;;;;7.43;6.18;;;25.00;53.50;;;;;;4940239;29;20039;-62
2021/06/08 10:41:41;;;;;;;8.13;6.65;;;24.70;55.00;;;;;;4937647;29;20042;-66
2021/06/08 10:44:17;;;;;;;10.68;6.05;;;24.60;55.30;;;;;;4938262;29;20040;-62
2021/06/08 10:46:50;;;;;;;7.07;6.28;;;24.60;55.10;;;;;;4938403;29;20497;-64
2021/06/08 10:49:16;;;;;;;8.20;6.85;;;24.10;54.40;;;;;;4938390;29;20036;-62
2021/06/08 10:52:02;;;;;;;7.07;6.38;;;23.60;55.80;;;;;;4939256;29;20049;-62
2021/06/08 10:54:35;;;;;;;7.63;6.80;;;23.40;56.70;;;;;;4920805;29;20044;-61
2021/06/08 10:57:02;;;;;;;7.10;6.07;;;23.20;57.20;;;;;;4939539;29;20047;-63
2021/06/08 10:59:38;;;;;;;7.25;6.55;;;23.00;57.40;;;;;;4906632;29;20069;-62
2021/06/08 11:02:05;;;;;;;8.82;6.72;;;23.00;57.40;;;;;;4938487;28;20440;-60
2021/06/08 11:04:55;;;;;;;7.97;6.00;;;23.00;57.60;;;;;;4937345;29;20070;-60
2021/06/08 11:07:46;;;;;;;7.47;5.63;;;23.00;57.80;;;;;;4937790;29;20082;-61
2021/06/08 11:10:28;;;;;;;9.30;5.80;;;23.10;58.40;;;;;;4937991;29;20098;-61
2021/06/08 11:13:09;;;;;;;10.93;6.53;;;23.10;58.80;;;;;;4938712;29;20106;-60
2021/06/08 11:15:39;;;;;;;9.15;5.30;;;23.20;58.50;;;;;;4938180;29;20054;-61
2021/06/08 11:18:35;;;;;;;7.97;5.18;;;23.20;58.20;;;;;;4938591;29;20043;-61
2021/06/08 11:21:03;;;;;;;7.90;5.25;;;23.40;57.60;;;;;;4886073;29;20050;-61
2021/06/08 11:23:43;;;;;;;8.07;6.28;;;23.50;57.10;;;;;;4938073;29;20098;-63
2021/06/08 11:26:16;;;;;;;7.38;6.20;;;23.70;56.80;;;;;;4932502;28;20698;-59
2021/06/08 11:28:50;;;;;;;7.15;5.97;;;23.80;57.30;;;;;;4914453;29;20048;-62
2021/06/08 11:31:23;;;;;;;6.47;4.53;;;24.00;56.20;;;;;;4932121;29;20094;-62
2021/06/08 11:34:00;;;;;;;6.22;4.55;;;24.10;56.20;;;;;;4924813;29;20039;-62
2021/06/08 11:36:26;;;;;;;4.60;4.15;;;24.30;55.80;;;;;;4924911;29;20067;-62
2021/06/08 11:38:57;;;;;;;7.15;3.72;;;24.40;55.60;;;;;;4926744;29;20078;-62
2021/06/08 11:41:23;;;;;;;7.35;4.80;;;24.60;55.40;;;;;;4930386;29;20072;-62
2021/06/08 11:43:58;;;;;;;9.73;6.03;;;24.60;55.00;;;;;;4925971;29;20039;-63
2021/06/08 11:46:32;;;;;;;10.32;5.82;;;24.70;54.60;;;;;;4927022;29;20039;-62
2021/06/08 11:49:06;;;;;;;16.85;6.95;;;24.80;54.30;;;;;;4927412;29;20139;-62
2021/06/08 11:51:52;;;;;;;8.70;4.55;;;24.80;54.80;;;;;;4925756;29;20043;-62
2021/06/08 11:54:19;;;;;;;17.95;6.78;;;24.90;54.80;;;;;;4933184;29;20519;-62
2021/06/08 11:56:52;;;;;;;12.95;5.55;;;24.90;54.30;;;;;;4936450;29;20044;-64
2021/06/08 11:59:24;;;;;;;7.85;4.72;;;25.00;53.70;;;;;;4929723;29;20090;-59
2021/06/08 12:02:18;;;;;;;8.48;5.75;;;25.00;54.00;;;;;;4932295;29;20040;-63
2021/06/08 12:05:18;;;;;;;13.38;5.40;;;25.00;53.80;;;;;;4932503;29;20571;-62
2021/06/08 12:08:03;;;;;;;14.40;4.63;;;25.00;53.90;;;;;;4934552;29;20051;-61
2021/06/08 12:10:35;;;;;;;8.00;4.15;;;25.00;53.10;;;;;;4917102;29;20057;-60
2021/06/08 12:13:04;;;;;;;8.93;3.15;;;25.00;52.50;;;;;;4931808;29;20054;-61
2021/06/08 12:15:34;;;;;;;5.43;2.72;;;25.00;52.90;;;;;;4934774;29;20714;-60
2021/06/08 12:18:05;;;;;;;20.30;3.85;;;25.00;52.80;;;;;;4934128;29;20058;-58
2021/06/08 12:20:42;;;;;;;17.60;3.70;;;25.00;52.60;;;;;;4934511;29;20067;-58
2021/06/08 12:23:09;;;;;;;6.82;3.80;;;25.00;52.10;;;;;;4934294;29;20035;-58
2021/06/08 12:25:36;;;;;;;8.95;2.67;;;25.00;52.10;;;;;;4933921;29;20043;-58
2021/06/08 12:28:09;;;;;;;3.78;3.25;;;25.10;52.20;;;;;;4923345;29;20112;-57
2021/06/08 12:30:35;;;;;;;;;;;25.00;51.40;;;;;;4934715;29;20039;-58
2021/06/08 12:33:03;;;;;;;7.28;3.08;;;24.90;52.70;;;;;;4931888;29;19956;-59
2021/06/08 12:35:45;;;;;;;13.73;3.20;;;24.90;51.90;;;;;;4932843;29;20040;-59
2021/06/08 12:38:20;;;;;;;20.27;3.50;;;24.90;52.10;;;;;;4932394;29;20056;-59
2021/06/08 12:41:26;;;;;;;14.95;3.47;;;24.80;52.10;;;;;;4915886;29;20040;-59
2021/06/08 12:43:55;;;;;;;4.85;3.42;;;24.80;51.80;;;;;;4907603;29;20487;-59
2021/06/08 12:46:24;;;;;;;12.50;3.10;;;24.70;52.10;;;;;;4941618;29;20045;-61
2021/06/08 12:49:18;;;;;;;4.60;3.08;;;24.70;51.90;;;;;;4939646;29;20131;-62
2021/06/08 12:52:04;;;;;;;4.25;3.28;;;24.60;52.80;;;;;;4931025;29;21080;-62
2021/06/08 12:54:37;;;;;;;4.72;3.65;;;24.40;52.20;;;;;;4939989;29;20407;-62
2021/06/08 12:57:06;;;;;;;5.90;3.38;;;24.20;52.40;;;;;;4939961;29;20043;-62
2021/06/08 12:59:36;;;;;;;7.03;3.28;;;24.00;52.90;;;;;;4940475;29;20054;-62
2021/06/08 13:02:07;;;;;;;3.92;2.55;;;23.80;53.20;;;;;;4941540;29;20043;-62
2021/06/08 13:04:37;;;;;;;4.55;2.65;;;23.70;52.70;;;;;;4921982;29;20050;-62
2021/06/08 13:07:03;;;;;;;3.97;2.33;;;23.50;53.30;;;;;;4922369;29;20038;-61
2021/06/08 13:09:29;;;;;;;3.83;2.08;;;23.40;53.70;;;;;;4940506;29;20159;-61